Time;durP1;ratioP1;P1;durP2;ratioP2;P2;SDS_P1;SDS_P2;PMS_P1;PMS_P2;Temp;Humidity;BMP_temperature;BMP_pressure;BME280_temperature;BME280_humidity;BME280_pressure;Samples;Min_cycle;Max_cycle;Signal;HPM_P1;HPM_P2
2023/02/09 00:00:00;;;;;;;23.27;12.05;;;-3.90;99.90;;;;;;4982009;28;20227;-83
2023/02/09 00:02:39;;;;;;;16.35;9.65;;;-3.80;99.90;;;;;;4981410;28;20203;-84
2023/02/09 00:05:16;;;;;;;18.40;10.23;;;-3.80;99.90;;;;;;4981097;28;20662;-84
2023/02/09 00:07:50;;;;;;;17.42;11.00;;;-3.80;99.90;;;;;;4981411;28;20199;-83
2023/02/09 00:13:26;;;;;;;16.65;8.98;;;-3.70;99.90;;;;;;4999946;28;20199;-83
2023/02/09 00:16:07;;;;;;;15.25;9.20;;;-3.90;99.90;;;;;;4987222;28;20191;-83
2023/02/09 00:18:42;;;;;;;20.98;9.82;;;-3.60;99.90;;;;;;4980608;28;20230;-83
2023/02/09 00:21:19;;;;;;;17.45;9.70;;;-3.50;99.90;;;;;;4981441;28;20196;-83
2023/02/09 00:23:55;;;;;;;18.27;8.25;;;-3.30;99.90;;;;;;4981584;28;20214;-82
2023/02/09 00:26:37;;;;;;;15.32;9.85;;;-3.10;99.90;;;;;;4999807;28;20269;-83
2023/02/09 00:29:08;;;;;;;13.60;8.27;;;-3.00;99.90;;;;;;4998995;28;20237;-83
2023/02/09 00:31:40;;;;;;;17.77;8.70;;;-2.80;99.90;;;;;;4999865;28;20207;-83
2023/02/09 00:34:18;;;;;;;17.35;10.13;;;-2.70;99.60;;;;;;4999395;28;20203;-83
2023/02/09 00:36:56;;;;;;;15.63;8.68;;;-2.50;98.90;;;;;;5000384;28;20206;-83
2023/02/09 00:39:40;;;;;;;17.45;9.57;;;-2.40;97.40;;;;;;4997015;28;20222;-83
2023/02/09 00:42:22;;;;;;;12.73;8.82;;;-2.40;97.10;;;;;;4980817;28;20199;-83
2023/02/09 00:44:52;;;;;;;16.58;8.43;;;-2.30;97.00;;;;;;4982212;28;20631;-83
2023/02/09 00:47:21;;;;;;;13.85;8.27;;;-2.30;97.10;;;;;;4981214;28;20573;-83
2023/02/09 00:50:07;;;;;;;15.23;9.07;;;-2.40;97.40;;;;;;4988266;28;20241;-83
2023/02/09 00:52:39;;;;;;;16.67;9.05;;;-2.40;97.80;;;;;;5000796;28;20225;-82
2023/02/09 00:55:14;;;;;;;13.05;8.88;;;-2.40;97.90;;;;;;4990243;28;20202;-83
2023/02/09 00:57:46;;;;;;;14.27;8.43;;;-2.40;97.20;;;;;;4980424;28;20314;-83
2023/02/09 01:00:16;;;;;;;17.05;8.82;;;-2.40;98.30;;;;;;4990679;28;20234;-83
2023/02/09 01:02:50;;;;;;;18.52;9.27;;;-2.50;98.50;;;;;;5000406;28;20290;-83
2023/02/09 01:05:23;;;;;;;16.08;8.13;;;-2.50;98.80;;;;;;5000215;28;20254;-83
2023/02/09 01:08:02;;;;;;;17.90;8.35;;;-2.50;99.50;;;;;;5000311;28;20562;-83
2023/02/09 01:13:21;;;;;;;16.83;8.98;;;-2.70;99.90;;;;;;4981217;28;20254;-83
2023/02/09 01:15:52;;;;;;;17.20;6.97;;;-2.70;99.90;;;;;;4997316;28;20191;-83
2023/02/09 01:18:31;;;;;;;18.05;9.40;;;-2.80;99.90;;;;;;5000407;28;20223;-83
2023/02/09 01:20:59;;;;;;;15.35;8.15;;;-2.90;99.90;;;;;;4982321;28;20195;-82
2023/02/09 01:23:34;;;;;;;16.02;9.80;;;-3.00;99.90;;;;;;4980887;28;20204;-83
2023/02/09 01:26:16;;;;;;;18.90;9.50;;;-3.00;99.90;;;;;;4997804;28;20198;-83
2023/02/09 01:31:39;;;;;;;18.88;7.82;;;-3.20;99.90;;;;;;4979765;28;20200;-82
2023/02/09 01:34:17;;;;;;;24.08;10.38;;;-3.20;99.90;;;;;;4981645;28;20198;-83
2023/02/09 01:36:53;;;;;;;15.88;7.93;;;-3.20;99.90;;;;;;4980547;28;20226;-83
2023/02/09 01:39:29;;;;;;;19.42;9.43;;;-3.20;99.90;;;;;;4984543;28;20241;-82
2023/02/09 01:42:19;;;;;;;17.42;9.20;;;-3.30;99.90;;;;;;5003270;28;20199;-82
2023/02/09 01:45:34;;;;;;;15.88;7.93;;;-3.30;99.90;;;;;;4996482;28;20219;-83
2023/02/09 01:48:14;;;;;;;11.85;8.27;;;-3.40;99.90;;;;;;4983746;28;20235;-82
2023/02/09 01:51:02;;;;;;;13.75;8.43;;;-3.50;99.90;;;;;;4998912;28;20191;-82
2023/02/09 01:53:39;;;;;;;16.75;9.65;;;-3.70;99.90;;;;;;5003003;28;20199;-82
2023/02/09 01:56:13;;;;;;;13.60;9.25;;;-3.70;99.90;;;;;;4984149;28;20253;-83
2023/02/09 01:58:51;;;;;;;19.88;11.07;;;-3.60;99.90;;;;;;4983517;28;20227;-83
2023/02/09 02:01:24;;;;;;;18.05;9.13;;;-3.70;99.90;;;;;;5002753;28;20649;-82
2023/02/09 02:04:13;;;;;;;20.83;9.30;;;-3.60;99.90;;;;;;5002183;28;20206;-83
2023/02/09 02:06:56;;;;;;;20.23;12.88;;;-3.70;99.90;;;;;;4982912;28;20216;-83
2023/02/09 02:09:35;;;;;;;14.77;9.85;;;-3.60;99.90;;;;;;4988582;28;20211;-83
2023/02/09 02:12:12;;;;;;;17.25;11.73;;;-3.60;99.90;;;;;;5002741;28;20579;-82
2023/02/09 02:14:57;;;;;;;14.18;9.95;;;-3.60;99.90;;;;;;4998374;28;20192;-83
2023/02/09 02:17:37;;;;;;;16.60;11.48;;;-3.70;99.90;;;;;;4989177;28;20220;-82
2023/02/09 02:20:23;;;;;;;16.80;9.85;;;-3.70;99.90;;;;;;4987792;23;20219;-83
2023/02/09 02:23:17;;;;;;;14.77;9.75;;;-3.70;99.90;;;;;;4982963;28;20200;-83
2023/02/09 02:26:17;;;;;;;16.77;11.02;;;-3.80;99.90;;;;;;4982719;28;20569;-82
2023/02/09 02:29:17;;;;;;;19.60;9.00;;;-3.70;99.90;;;;;;4982379;28;20215;-82
2023/02/09 02:32:36;;;;;;;18.05;9.70;;;-3.60;99.90;;;;;;4982768;28;20258;-82
2023/02/09 02:35:27;;;;;;;17.35;8.88;;;-3.50;99.90;;;;;;4982020;28;20204;-83
2023/02/09 02:38:17;;;;;;;15.40;10.55;;;-3.60;99.90;;;;;;4982195;28;20230;-83
2023/02/09 02:41:12;;;;;;;22.55;11.73;;;-3.70;99.90;;;;;;4982435;28;20222;-83
2023/02/09 02:43:49;;;;;;;13.23;8.88;;;-3.70;99.90;;;;;;4982703;28;20729;-82
2023/02/09 02:46:28;;;;;;;23.38;13.60;;;-3.90;99.90;;;;;;4982192;28;20211;-83
2023/02/09 02:49:23;;;;;;;14.98;11.18;;;-3.80;99.90;;;;;;4981831;28;20232;-83
2023/02/09 02:52:12;;;;;;;17.73;12.75;;;-3.80;99.90;;;;;;4981833;28;20291;-83
2023/02/09 02:54:51;;;;;;;14.68;11.77;;;-3.90;99.90;;;;;;4966051;28;20223;-83
2023/02/09 02:57:40;;;;;;;19.13;13.05;;;-4.00;99.90;;;;;;4982783;28;20561;-83
2023/02/09 03:00:19;;;;;;;22.30;18.83;;;-4.10;99.90;;;;;;4981691;28;20204;-83
2023/02/09 03:02:53;;;;;;;20.85;18.20;;;-4.10;99.90;;;;;;4982320;28;20207;-82
2023/02/09 03:05:32;;;;;;;25.88;19.35;;;-4.20;99.90;;;;;;4982139;28;20278;-83
2023/02/09 03:08:31;;;;;;;29.80;23.02;;;-4.20;99.90;;;;;;4981562;28;20216;-83
2023/02/09 03:11:11;;;;;;;23.45;21.40;;;-4.20;99.90;;;;;;4982038;28;20196;-83
2023/02/09 03:14:03;;;;;;;21.45;19.75;;;-4.10;99.90;;;;;;4981530;28;20204;-82
2023/02/09 03:16:48;;;;;;;20.55;18.48;;;-4.00;99.90;;;;;;4981361;28;20191;-83
2023/02/09 03:19:38;;;;;;;20.08;18.33;;;-4.00;99.90;;;;;;4981232;28;20285;-83
2023/02/09 03:25:21;;;;;;;21.10;19.23;;;-3.90;99.90;;;;;;4974233;28;20227;-83
2023/02/09 03:28:03;;;;;;;25.77;23.58;;;-4.40;99.90;;;;;;4981609;28;20199;-83
2023/02/09 03:30:41;;;;;;;21.40;18.95;;;-3.90;99.90;;;;;;4981536;28;20191;-84
2023/02/09 03:33:34;;;;;;;21.60;16.42;;;-3.90;99.90;;;;;;4982143;28;20207;-83
2023/02/09 03:36:15;;;;;;;23.23;19.63;;;-3.80;99.90;;;;;;4981266;28;20263;-83
2023/02/09 03:38:55;;;;;;;25.05;22.40;;;-3.80;99.90;;;;;;4981356;28;20228;-82
2023/02/09 03:41:41;;;;;;;21.25;19.25;;;-4.00;99.90;;;;;;4982085;28;20207;-83
2023/02/09 03:44:27;;;;;;;19.20;17.05;;;-3.80;99.90;;;;;;4981412;28;20290;-83
2023/02/09 03:49:59;;;;;;;30.17;27.00;;;-3.80;99.90;;;;;;4980896;28;20239;-83
2023/02/09 03:52:36;;;;;;;39.00;36.25;;;-3.90;99.90;;;;;;4980889;28;20271;-84
2023/02/09 03:55:19;;;;;;;;;;;;;;;;;;;;;
2023/02/09 04:00:44;;;;;;;43.83;40.38;;;-3.80;99.90;;;;;;4978929;28;20279;-84
2023/02/09 04:03:19;;;;;;;38.60;35.38;;;-3.80;99.90;;;;;;4981257;28;20302;-82
2023/02/09 04:05:59;;;;;;;32.45;30.15;;;-3.80;99.90;;;;;;4981194;28;20196;-83
2023/02/09 04:08:32;;;;;;;40.38;37.33;;;-3.80;99.90;;;;;;4980777;28;20653;-83
2023/02/09 04:11:11;;;;;;;30.58;27.63;;;-3.80;99.90;;;;;;4980349;28;20220;-83
2023/02/09 04:13:49;;;;;;;29.00;26.60;;;-3.80;99.90;;;;;;4979955;28;20206;-84
2023/02/09 04:16:25;;;;;;;35.58;33.28;;;-3.80;99.90;;;;;;4980628;28;20584;-83
2023/02/09 04:18:57;;;;;;;38.67;35.58;;;-3.80;99.90;;;;;;4980897;28;20227;-83
2023/02/09 04:21:30;;;;;;;45.63;42.28;;;-3.90;99.90;;;;;;4980048;28;20254;-84
2023/02/09 04:24:11;;;;;;;46.28;43.05;;;-4.20;99.90;;;;;;4980831;28;20207;-84
2023/02/09 04:26:42;;;;;;;42.65;39.75;;;-3.80;99.90;;;;;;4980629;28;20206;-83
2023/02/09 04:29:27;;;;;;;42.63;38.78;;;-3.80;99.90;;;;;;4980828;28;20220;-84
2023/02/09 04:32:02;;;;;;;37.28;33.88;;;-3.80;99.90;;;;;;4980359;28;20200;-83
2023/02/09 04:34:39;;;;;;;46.78;42.38;;;-3.70;99.90;;;;;;4981143;28;20202;-84
2023/02/09 04:37:27;;;;;;;44.30;41.00;;;-3.90;99.90;;;;;;4980060;28;20327;-83
2023/02/09 04:40:10;;;;;;;33.10;30.30;;;-3.90;99.90;;;;;;4979991;28;20685;-83
2023/02/09 04:43:25;;;;;;;40.80;37.60;;;-3.70;99.90;;;;;;4979265;28;20254;-84
2023/02/09 04:52:25;;;;;;;69.18;65.32;;;-3.70;99.90;;;;;;4978286;28;20241;-83
2023/02/09 04:54:52;;;;;;;53.75;50.30;;;-3.60;99.90;;;;;;4980322;28;20210;-83
2023/02/09 05:00:25;;;;;;;36.90;34.05;;;-3.50;99.90;;;;;;4962263;28;20227;-84
2023/02/09 05:06:40;;;;;;;44.63;41.55;;;-3.40;99.90;;;;;;4968825;28;20192;-84
2023/02/09 05:09:48;;;;;;;36.05;33.15;;;-3.40;99.90;;;;;;4979851;28;20311;-83
2023/02/09 05:12:42;;;;;;;38.22;35.38;;;-3.40;99.90;;;;;;4980089;28;20211;-83
2023/02/09 05:15:19;;;;;;;46.47;37.85;;;-3.50;99.90;;;;;;4971700;28;20220;-84
2023/02/09 05:21:57;;;;;;;52.88;49.55;;;-3.70;99.90;;;;;;4963223;29;20187;-83
2023/02/09 05:32:17;;;;;;;46.05;42.38;;;-3.60;99.90;;;;;;4796639;29;20254;-83
2023/02/09 05:54:34;;;;;;;59.15;54.53;;;-3.70;99.90;;;;;;4985337;28;20231;-83
2023/02/09 05:57:48;;;;;;;37.28;34.08;;;-3.60;99.90;;;;;;4979880;28;20196;-83
2023/02/09 06:00:39;;;;;;;49.35;28.63;;;-3.60;99.90;;;;;;4957654;28;20755;-82
2023/02/09 06:10:28;;;;;;;;;;;;;;;;;;;;;
2023/02/09 06:26:21;;;;;;;29.35;24.73;;;-3.70;99.90;;;;;;5001220;28;20191;-82
2023/02/09 06:29:08;;;;;;;26.80;20.38;;;-3.60;99.90;;;;;;4988295;28;20229;-82
2023/02/09 06:31:44;;;;;;;27.30;24.50;;;-3.70;99.90;;;;;;5001698;28;20201;-81
2023/02/09 06:34:24;;;;;;;26.50;24.05;;;-3.70;99.90;;;;;;5002850;28;20223;-82
2023/02/09 06:37:09;;;;;;;29.67;26.25;;;-3.80;99.90;;;;;;5000593;28;20199;-81
2023/02/09 06:42:51;;;;;;;37.20;34.25;;;-3.90;99.90;;;;;;4987103;28;20643;-81
2023/02/09 06:45:25;;;;;;;41.75;37.25;;;-4.00;99.90;;;;;;4986612;28;20223;-82
2023/02/09 06:47:57;;;;;;;46.95;43.20;;;-3.90;99.90;;;;;;4999187;28;20261;-82
2023/02/09 06:50:44;;;;;;;72.75;68.65;;;-4.00;99.90;;;;;;4988207;28;20202;-82
2023/02/09 06:53:24;;;;;;;64.03;60.40;;;-4.10;99.90;;;;;;4994186;28;20231;-79
2023/02/09 06:56:15;;;;;;;69.88;65.57;;;-4.00;99.90;;;;;;4992971;28;20230;-82
2023/02/09 06:58:54;;;;;;;79.32;74.53;;;-4.00;99.90;;;;;;5017622;23;20708;-84
2023/02/09 07:01:35;;;;;;;89.30;84.30;;;-4.10;99.90;;;;;;5006508;28;20269;-84
2023/02/09 07:04:24;;;;;;;111.30;105.95;;;-4.00;99.90;;;;;;4989363;28;20205;-84
2023/02/09 07:13:10;;;;;;;189.82;181.95;;;-4.00;99.90;;;;;;4997657;28;20255;-85
2023/02/09 07:16:32;;;;;;;179.60;172.27;;;-3.90;99.90;;;;;;4981589;28;20203;-85
2023/02/09 07:19:05;;;;;;;160.73;153.13;;;-3.80;99.90;;;;;;4992318;28;20215;-84
2023/02/09 07:21:50;;;;;;;136.55;129.70;;;-3.80;99.90;;;;;;4993000;28;20223;-84
2023/02/09 07:24:34;;;;;;;133.57;127.13;;;-3.60;99.90;;;;;;4995385;28;20271;-85
2023/02/09 07:27:23;;;;;;;125.55;119.40;;;-3.60;99.90;;;;;;4988222;28;20258;-85
2023/02/09 07:33:35;;;;;;;;;;;;;;;;;;;;;
2023/02/09 07:36:26;;;;;;;33.17;19.60;;;-3.50;99.90;;;;;;4927916;29;20599;-85
2023/02/09 07:45:30;;;;;;;29.88;14.23;;;-2.70;99.90;;;;;;4984720;28;20204;-85
2023/02/09 07:51:24;;;;;;;30.00;14.82;;;-2.40;99.90;;;;;;5130440;23;20283;-84
2023/02/09 07:57:31;;;;;;;26.52;13.32;;;-2.20;99.90;;;;;;4958385;29;20208;-83
2023/02/09 08:03:45;;;;;;;27.17;13.95;;;-2.00;99.90;;;;;;4966651;28;20696;-83
2023/02/09 08:06:41;;;;;;;27.40;11.68;;;-1.90;99.90;;;;;;4965785;29;20675;-84
2023/02/09 08:09:43;;;;;;;18.25;10.13;;;-1.70;99.90;;;;;;4964795;28;20229;-83
2023/02/09 08:25:19;;;;;;;19.92;11.05;;;-1.30;99.90;;;;;;5001523;28;20199;-84
2023/02/09 08:34:30;;;;;;;26.08;14.07;;;-1.00;99.90;;;;;;4991043;28;20187;-84
2023/02/09 08:37:32;;;;;;;28.60;12.45;;;-0.90;99.90;;;;;;4982738;28;20205;-85
2023/02/09 08:40:46;;;;;;;;;;;;;;;;;;;;;
2023/02/09 08:43:56;;;;;;;32.47;14.03;;;-0.70;99.90;;;;;;5001345;28;20202;-84
2023/02/09 08:49:44;;;;;;;30.45;14.98;;;-0.40;99.90;;;;;;5223908;23;20713;-84
2023/02/09 08:52:37;;;;;;;28.55;14.60;;;-0.40;99.90;;;;;;5001732;28;20202;-84
2023/02/09 08:55:14;;;;;;;23.10;13.00;;;-0.30;99.90;;;;;;5003875;28;20195;-84
2023/02/09 08:58:11;;;;;;;32.17;15.10;;;-0.10;99.90;;;;;;5001635;28;20793;-83
2023/02/09 09:00:51;;;;;;;21.90;12.88;;;-0.10;99.90;;;;;;5002825;28;20536;-84
2023/02/09 09:03:33;;;;;;;25.87;12.47;;;0.10;99.90;;;;;;5002150;28;20202;-84
2023/02/09 09:06:21;;;;;;;28.53;14.67;;;0.20;99.90;;;;;;5003106;28;20469;-84
2023/02/09 09:09:06;;;;;;;29.27;16.53;;;0.40;99.90;;;;;;5004410;28;20500;-84
2023/02/09 09:11:41;;;;;;;25.40;12.47;;;0.40;99.90;;;;;;5001996;28;20462;-84
2023/02/09 09:14:25;;;;;;;23.73;13.17;;;0.50;99.90;;;;;;5002801;28;20481;-84
2023/02/09 09:17:18;;;;;;;24.60;13.20;;;0.60;99.90;;;;;;5003293;28;20480;-84
2023/02/09 09:20:00;;;;;;;26.70;12.43;;;0.60;99.80;;;;;;5003666;28;20478;-85
2023/02/09 09:22:45;;;;;;;28.40;12.87;;;0.60;99.80;;;;;;5004590;28;20453;-85
2023/02/09 09:28:21;;;;;;;28.35;15.50;;;0.90;99.20;;;;;;4999264;28;20463;-86
2023/02/09 09:33:57;;;;;;;27.83;14.20;;;1.10;99.40;;;;;;5005723;28;20867;-85
2023/02/09 09:36:39;;;;;;;30.53;14.70;;;1.30;98.50;;;;;;5004091;28;20450;-85
2023/02/09 09:42:13;;;;;;;19.80;10.97;;;1.40;96.90;;;;;;5000943;28;20454;-85
2023/02/09 09:44:58;;;;;;;25.80;13.00;;;1.60;96.50;;;;;;5003297;28;20488;-86
2023/02/09 09:47:41;;;;;;;20.37;11.17;;;1.60;95.50;;;;;;5003285;28;20461;-86
2023/02/09 09:50:27;;;;;;;28.97;13.23;;;1.70;94.90;;;;;;5005078;28;20525;-86
2023/02/09 09:53:11;;;;;;;21.70;12.40;;;1.90;95.30;;;;;;5004287;28;20533;-84
2023/02/09 09:55:58;;;;;;;27.10;13.97;;;2.00;95.30;;;;;;5005340;28;20492;-85
2023/02/09 09:58:55;;;;;;;38.20;13.90;;;2.20;94.20;;;;;;5028536;23;20593;-85
2023/02/09 10:01:27;;;;;;;23.63;12.50;;;2.20;93.60;;;;;;5004905;28;20861;-85
2023/02/09 10:04:16;;;;;;;27.50;12.47;;;2.30;92.40;;;;;;5009706;28;20470;-85
2023/02/09 10:06:48;;;;;;;32.47;14.50;;;2.60;91.90;;;;;;5009001;28;20450;-85
2023/02/09 10:09:37;;;;;;;27.43;13.67;;;2.90;92.50;;;;;;5008905;28;20481;-85
2023/02/09 10:12:34;;;;;;;21.20;13.03;;;3.50;91.60;;;;;;5005092;28;20450;-84
2023/02/09 10:18:02;;;;;;;25.43;12.60;;;3.90;88.00;;;;;;5179184;27;20946;-83
2023/02/09 10:20:42;;;;;;;24.83;12.00;;;4.60;83.90;;;;;;5179940;27;20449;-83
2023/02/09 10:23:21;;;;;;;23.53;12.67;;;4.90;84.50;;;;;;5180236;27;20438;-83
2023/02/09 10:26:22;;;;;;;22.83;14.50;;;5.00;79.70;;;;;;5180003;27;20451;-82
2023/02/09 10:28:55;;;;;;;22.43;12.17;;;5.50;80.00;;;;;;5179611;27;20486;-82
2023/02/09 10:31:26;;;;;;;24.20;13.20;;;5.40;77.40;;;;;;5179470;27;20450;-83
2023/02/09 10:34:02;;;;;;;30.67;13.93;;;5.70;80.00;;;;;;5178986;27;20460;-82
2023/02/09 10:36:32;;;;;;;27.20;12.90;;;5.60;77.50;;;;;;5179547;27;20495;-83
2023/02/09 10:39:13;;;;;;;21.47;13.40;;;5.60;75.90;;;;;;5179448;27;20498;-82
2023/02/09 10:41:45;;;;;;;27.63;11.33;;;5.70;74.30;;;;;;5179420;27;20438;-83
2023/02/09 10:44:21;;;;;;;21.43;13.03;;;5.70;75.70;;;;;;5179269;27;20458;-83
2023/02/09 10:46:49;;;;;;;30.90;14.20;;;5.50;74.60;;;;;;5179271;27;20529;-82
2023/02/09 10:49:34;;;;;;;28.70;13.60;;;5.60;75.30;;;;;;5178773;27;20917;-82
2023/02/09 10:52:17;;;;;;;28.80;15.23;;;5.70;74.30;;;;;;5178723;27;20461;-82
2023/02/09 10:54:46;;;;;;;29.73;13.20;;;5.90;74.40;;;;;;5178552;27;20452;-83
2023/02/09 10:57:23;;;;;;;25.33;13.50;;;6.00;73.20;;;;;;5178513;27;20495;-83
2023/02/09 10:59:55;;;;;;;22.23;12.10;;;6.20;69.60;;;;;;5178903;27;20500;-83
2023/02/09 11:02:37;;;;;;;22.37;12.67;;;6.50;70.80;;;;;;5178580;27;20446;-83
2023/02/09 11:05:27;;;;;;;25.70;12.67;;;6.30;70.00;;;;;;5178352;27;20471;-83
2023/02/09 11:07:59;;;;;;;26.50;13.90;;;6.40;70.00;;;;;;5178811;27;20442;-83
2023/02/09 11:10:29;;;;;;;25.97;12.70;;;6.40;69.50;;;;;;5178596;27;20450;-82
2023/02/09 11:12:57;;;;;;;23.43;13.13;;;6.60;68.10;;;;;;5178653;27;20443;-83
2023/02/09 11:15:36;;;;;;;28.50;13.17;;;6.40;66.30;;;;;;5179116;27;20540;-83
2023/02/09 11:18:09;;;;;;;25.33;12.90;;;7.00;65.10;;;;;;5178330;27;20507;-83
2023/02/09 11:20:44;;;;;;;22.73;12.70;;;7.00;62.30;;;;;;5179123;27;20449;-83
2023/02/09 11:23:37;;;;;;;20.43;11.57;;;7.50;59.90;;;;;;5178189;27;20480;-85
2023/02/09 11:26:09;;;;;;;24.23;11.90;;;7.50;59.80;;;;;;5176223;27;20974;-85
2023/02/09 11:28:49;;;;;;;25.77;12.73;;;7.70;58.60;;;;;;5168211;27;20502;-85
2023/02/09 11:31:46;;;;;;;21.20;12.07;;;7.70;56.70;;;;;;5164406;27;20450;-85
2023/02/09 11:34:37;;;;;;;19.73;12.37;;;7.40;59.70;;;;;;5164676;27;20439;-85
2023/02/09 11:37:19;;;;;;;20.90;12.40;;;7.50;58.50;;;;;;5161652;27;20478;-84
2023/02/09 11:39:52;;;;;;;18.20;11.30;;;7.50;57.80;;;;;;5164133;27;20463;-83
2023/02/09 11:45:11;;;;;;;20.67;11.90;;;7.70;54.50;;;;;;5164434;27;20526;-83
2023/02/09 11:47:53;;;;;;;22.50;12.63;;;7.90;53.40;;;;;;5164941;27;20444;-84
2023/02/09 11:50:27;;;;;;;22.90;12.17;;;8.20;52.40;;;;;;5164857;27;20451;-83
2023/02/09 11:52:59;;;;;;;20.03;11.73;;;8.30;50.30;;;;;;5165115;27;20817;-84
2023/02/09 11:55:37;;;;;;;24.33;12.30;;;8.60;52.30;;;;;;5164593;27;20866;-84
2023/02/09 11:58:19;;;;;;;31.53;12.67;;;9.00;49.50;;;;;;5165054;27;20479;-81
2023/02/09 12:00:54;;;;;;;23.47;12.70;;;9.20;49.30;;;;;;5165539;27;20447;-83
2023/02/09 12:03:22;;;;;;;21.90;11.83;;;9.40;46.50;;;;;;5164977;27;20435;-83
2023/02/09 12:05:50;;;;;;;22.90;11.60;;;10.00;43.90;;;;;;5165308;27;20490;-83
2023/02/09 12:08:38;;;;;;;19.33;11.70;;;10.20;36.90;;;;;;5165173;27;20475;-83
2023/02/09 12:11:19;;;;;;;21.77;11.20;;;10.00;35.00;;;;;;5165526;27;20474;-84
2023/02/09 12:14:01;;;;;;;21.97;11.37;;;10.20;35.20;;;;;;5165387;27;20482;-83
2023/02/09 12:16:34;;;;;;;19.33;10.67;;;10.80;34.10;;;;;;5164789;27;20478;-83
2023/02/09 12:19:05;;;;;;;18.37;9.90;;;10.80;31.10;;;;;;5164210;27;20881;-83
2023/02/09 12:21:37;;;;;;;20.00;9.20;;;9.80;28.40;;;;;;5164698;27;20442;-83
2023/02/09 12:24:27;;;;;;;23.03;9.50;;;9.90;30.20;;;;;;5164284;27;20476;-83
2023/02/09 12:26:56;;;;;;;18.90;9.70;;;10.00;28.80;;;;;;5164748;27;20454;-83
2023/02/09 12:29:36;;;;;;;15.30;9.47;;;10.00;29.90;;;;;;5163713;27;20467;-83
2023/02/09 12:32:29;;;;;;;21.10;9.30;;;9.70;27.50;;;;;;5163830;27;20447;-83
2023/02/09 12:35:29;;;;;;;15.87;9.13;;;9.40;29.10;;;;;;5163193;27;20453;-83
2023/02/09 12:38:15;;;;;;;16.90;8.63;;;9.30;31.40;;;;;;5162430;27;20892;-84
2023/02/09 12:40:44;;;;;;;15.97;9.70;;;9.20;30.00;;;;;;5162575;27;20462;-83
2023/02/09 12:43:28;;;;;;;18.07;9.97;;;9.30;35.60;;;;;;5164614;27;20479;-83
2023/02/09 12:46:26;;;;;;;17.63;7.90;;;9.60;34.70;;;;;;5162741;27;20941;-83
2023/02/09 12:49:24;;;;;;;19.43;9.13;;;9.40;32.80;;;;;;5166241;27;20998;-83
2023/02/09 12:52:16;;;;;;;18.50;9.23;;;9.70;32.60;;;;;;5165526;27;20451;-83
2023/02/09 12:54:54;;;;;;;22.67;9.50;;;10.20;28.20;;;;;;5154918;27;20504;-83
2023/02/09 12:57:53;;;;;;;16.13;8.70;;;10.20;27.50;;;;;;5164020;27;20519;-83
2023/02/09 13:00:56;;;;;;;18.17;8.50;;;9.70;27.50;;;;;;5164330;27;20439;-83
2023/02/09 13:03:25;;;;;;;18.97;9.30;;;9.90;29.10;;;;;;5163429;27;20825;-83
2023/02/09 13:05:59;;;;;;;15.37;8.00;;;9.60;30.70;;;;;;5163199;27;20537;-83
2023/02/09 13:08:47;;;;;;;15.57;8.13;;;9.20;30.50;;;;;;5163159;27;20512;-82
2023/02/09 13:11:39;;;;;;;15.03;8.27;;;9.20;31.50;;;;;;5162870;27;20447;-84
2023/02/09 13:14:12;;;;;;;22.50;9.50;;;9.20;34.20;;;;;;5163495;27;20442;-83
2023/02/09 13:17:10;;;;;;;20.37;9.40;;;9.30;35.40;;;;;;5163168;27;20467;-83
2023/02/09 13:19:59;;;;;;;15.83;8.90;;;9.40;35.50;;;;;;5162739;27;20497;-82
2023/02/09 13:22:32;;;;;;;19.60;10.03;;;9.50;31.90;;;;;;5163071;27;20482;-83
2023/02/09 13:25:01;;;;;;;15.53;8.77;;;9.60;31.60;;;;;;5163193;27;20557;-83
2023/02/09 13:30:23;;;;;;;16.37;8.30;;;9.80;28.60;;;;;;5397424;22;20490;-83
2023/02/09 13:33:00;;;;;;;16.07;8.67;;;9.50;29.40;;;;;;5079904;28;20462;-83
2023/02/09 13:35:42;;;;;;;16.73;8.20;;;9.30;29.80;;;;;;5079525;28;20446;-83
2023/02/09 13:38:26;;;;;;;15.40;9.50;;;8.60;30.00;;;;;;5080528;28;20484;-85
2023/02/09 13:41:29;;;;;;;19.10;8.60;;;8.10;36.90;;;;;;5081115;28;20484;-84
2023/02/09 13:44:00;;;;;;;14.57;7.47;;;8.00;37.90;;;;;;5083413;28;20476;-84
2023/02/09 13:46:35;;;;;;;18.70;8.87;;;8.00;34.30;;;;;;5081847;28;20446;-84
2023/02/09 13:49:43;;;;;;;16.00;8.10;;;7.70;34.00;;;;;;5098617;22;20490;-85
2023/02/09 13:52:29;;;;;;;14.43;8.13;;;7.80;35.10;;;;;;5078157;28;20463;-85
2023/02/09 13:55:19;;;;;;;14.60;8.10;;;7.40;35.60;;;;;;5080274;28;20454;-86
2023/02/09 13:58:16;;;;;;;15.47;9.07;;;7.10;35.30;;;;;;5056664;28;20667;-85
2023/02/09 14:00:49;;;;;;;17.17;9.20;;;7.40;37.80;;;;;;5074300;28;20534;-86
2023/02/09 14:03:20;;;;;;;17.03;8.47;;;7.40;37.40;;;;;;5079960;28;20474;-85
2023/02/09 14:05:51;;;;;;;16.63;8.67;;;7.50;41.00;;;;;;5079979;28;20443;-86
2023/02/09 14:08:21;;;;;;;19.73;8.70;;;7.20;42.40;;;;;;5080710;28;20484;-84
2023/02/09 14:10:52;;;;;;;12.43;8.20;;;7.20;42.40;;;;;;5082184;28;20824;-83
2023/02/09 14:13:24;;;;;;;16.03;9.30;;;7.10;42.30;;;;;;5082306;28;20500;-84
2023/02/09 14:16:08;;;;;;;16.10;8.90;;;6.90;42.20;;;;;;5080869;28;20474;-85
2023/02/09 14:18:51;;;;;;;19.23;10.30;;;6.80;43.60;;;;;;5081070;28;20227;-84
2023/02/09 14:21:28;;;;;;;16.07;9.33;;;6.80;44.80;;;;;;5082061;28;20949;-84
2023/02/09 14:24:28;;;;;;;18.40;11.10;;;6.80;50.30;;;;;;5080655;28;20488;-85
2023/02/09 14:27:02;;;;;;;12.80;8.70;;;6.90;48.00;;;;;;5040132;28;20631;-84
2023/02/09 14:29:31;;;;;;;17.23;9.57;;;6.90;47.80;;;;;;5067774;28;21058;-85
2023/02/09 14:32:21;;;;;;;26.73;9.87;;;6.80;50.60;;;;;;5061028;28;20439;-85
2023/02/09 14:35:00;;;;;;;19.00;9.60;;;6.70;48.90;;;;;;5061862;28;20447;-85
2023/02/09 14:37:30;;;;;;;23.73;9.70;;;6.80;50.80;;;;;;5060689;28;20510;-84
2023/02/09 14:40:03;;;;;;;19.33;9.40;;;6.80;51.60;;;;;;5060707;28;20471;-85
2023/02/09 14:42:32;;;;;;;16.83;8.37;;;6.80;50.80;;;;;;5060906;28;20482;-84
2023/02/09 14:48:15;;;;;;;17.70;9.67;;;6.90;50.20;;;;;;5061123;28;20466;-85
2023/02/09 14:50:45;;;;;;;17.57;10.57;;;6.70;51.30;;;;;;5061202;28;20447;-85
2023/02/09 14:53:18;;;;;;;20.73;10.97;;;6.70;56.90;;;;;;5061629;28;20448;-85
2023/02/09 14:55:47;;;;;;;17.00;9.20;;;6.70;57.70;;;;;;5061024;28;20489;-84
2023/02/09 14:58:25;;;;;;;16.70;9.10;;;6.70;54.80;;;;;;5059951;28;20994;-84
2023/02/09 15:00:56;;;;;;;18.20;9.17;;;6.70;49.70;;;;;;5060857;28;20486;-85
2023/02/09 15:03:24;;;;;;;16.83;9.10;;;6.60;45.80;;;;;;5062634;28;20517;-83
2023/02/09 15:05:58;;;;;;;25.33;9.27;;;6.40;45.50;;;;;;5064990;28;20455;-85
2023/02/09 15:08:29;;;;;;;19.90;10.03;;;6.20;48.70;;;;;;5065247;28;20499;-84
2023/02/09 15:10:59;;;;;;;19.27;9.90;;;6.20;47.70;;;;;;5065778;28;20444;-84
2023/02/09 15:13:31;;;;;;;16.07;9.07;;;6.10;47.80;;;;;;5065033;28;20980;-84
2023/02/09 15:15:58;;;;;;;17.50;9.53;;;6.00;46.60;;;;;;5064544;28;20461;-84
2023/02/09 15:18:34;;;;;;;19.17;10.10;;;5.90;47.30;;;;;;5064705;28;20479;-85
2023/02/09 15:21:03;;;;;;;20.30;9.70;;;5.90;47.10;;;;;;5065403;28;20450;-84
2023/02/09 15:23:39;;;;;;;14.53;7.73;;;5.80;50.00;;;;;;5063630;28;20527;-84
2023/02/09 15:26:08;;;;;;;15.37;9.07;;;5.70;50.90;;;;;;5064227;28;21015;-83
2023/02/09 15:28:36;;;;;;;17.90;9.63;;;5.60;52.30;;;;;;5063052;28;20481;-84
2023/02/09 15:31:05;;;;;;;19.23;10.32;;;5.60;52.90;;;;;;5063827;28;20459;-84
2023/02/09 15:33:32;;;;;;;18.80;9.47;;;5.40;53.40;;;;;;5064134;28;20224;-84
2023/02/09 15:36:04;;;;;;;19.73;9.70;;;5.30;57.90;;;;;;5064222;28;20451;-84
2023/02/09 15:38:31;;;;;;;19.73;10.50;;;5.20;55.90;;;;;;5064068;28;20483;-85
2023/02/09 15:49:17;;;;;;;17.08;9.40;;;4.90;51.50;;;;;;5063437;28;20451;-85
2023/02/09 15:51:45;;;;;;;19.73;10.47;;;4.70;52.50;;;;;;5062244;28;20469;-86
2023/02/09 15:54:16;;;;;;;20.60;9.90;;;4.60;53.40;;;;;;5063366;28;20446;-84
2023/02/09 15:56:43;;;;;;;20.07;11.07;;;4.40;53.30;;;;;;5064217;28;20459;-84
2023/02/09 15:59:18;;;;;;;21.17;10.15;;;4.30;54.30;;;;;;5063330;28;20466;-85
2023/02/09 16:01:49;;;;;;;19.50;8.60;;;4.20;54.50;;;;;;5064128;28;20196;-84
2023/02/09 16:04:16;;;;;;;21.43;10.87;;;4.10;55.00;;;;;;5062609;28;20961;-85
2023/02/09 16:06:49;;;;;;;21.47;10.73;;;3.90;59.90;;;;;;5064863;28;20462;-85
2023/02/09 16:09:22;;;;;;;20.50;11.37;;;3.80;61.40;;;;;;5063582;28;20478;-84
2023/02/09 16:11:49;;;;;;;23.90;11.07;;;3.60;62.40;;;;;;5063297;28;20459;-84
2023/02/09 16:14:19;;;;;;;23.48;11.00;;;3.40;64.10;;;;;;5062041;28;20444;-84
2023/02/09 16:16:46;;;;;;;22.10;12.70;;;3.30;67.00;;;;;;5062851;28;20287;-84
2023/02/09 16:19:13;;;;;;;22.07;10.93;;;3.20;69.10;;;;;;5063452;28;20478;-85
2023/02/09 16:21:46;;;;;;;27.00;13.13;;;3.10;70.00;;;;;;5062828;28;20474;-84
2023/02/09 16:24:27;;;;;;;21.63;12.00;;;2.90;71.10;;;;;;5061599;28;20514;-83
2023/02/09 16:26:59;;;;;;;21.27;12.40;;;2.80;70.30;;;;;;5061087;28;20501;-85
2023/02/09 16:29:29;;;;;;;29.73;12.90;;;2.60;69.80;;;;;;5067307;28;20464;-83